createdAt,value
2022-10-25T00:00:05.109Z,7.50
2022-10-25T00:03:00.009Z,6.50
2022-10-25T00:05:28.033Z,6.10
2022-10-25T00:07:55.909Z,6.40
2022-10-25T00:10:25.670Z,6.80
2022-10-25T00:12:54.068Z,6.10
2022-10-25T00:15:22.825Z,6.30
2022-10-25T00:17:51.745Z,6.60
2022-10-25T00:20:20.870Z,5.80
2022-10-25T00:22:49.120Z,7.00
2022-10-25T00:25:17.716Z,6.60
2022-10-25T00:27:45.644Z,6.40
2022-10-25T00:30:14.462Z,6.60
2022-10-25T00:32:42.401Z,5.50
2022-10-25T00:35:11.354Z,6.30
2022-10-25T00:37:39.314Z,7.10
2022-10-25T00:40:08.882Z,5.40
2022-10-25T00:42:36.896Z,6.10
2022-10-25T00:45:27.974Z,7.60
2022-10-25T00:48:06.160Z,5.50
2022-10-25T00:50:56.758Z,5.50
2022-10-25T00:53:32.742Z,5.20
2022-10-25T00:56:26.496Z,5.40
2022-10-25T00:59:02.090Z,6.80
2022-10-25T01:01:30.950Z,6.60
2022-10-25T01:04:06.310Z,5.20
2022-10-25T01:06:51.240Z,6.00
2022-10-25T01:09:25.004Z,7.00
2022-10-25T01:11:53.732Z,5.60
2022-10-25T01:14:22.109Z,5.70
2022-10-25T01:17:27.289Z,6.30
2022-10-25T01:20:43.582Z,4.90
2022-10-25T01:23:48.682Z,5.20
2022-10-25T01:26:37.909Z,6.00
2022-10-25T01:29:42.082Z,5.30
2022-10-25T01:32:53.782Z,5.20
2022-10-25T01:35:32.454Z,5.10
2022-10-25T01:38:30.571Z,5.40
2022-10-25T01:41:25.165Z,5.80
2022-10-25T01:44:18.025Z,5.20
2022-10-25T01:47:00.116Z,4.80
2022-10-25T01:50:14.115Z,5.70
2022-10-25T01:52:42.648Z,4.90
2022-10-25T01:55:14.325Z,5.50
2022-10-25T01:57:53.969Z,6.30
2022-10-25T02:00:24.503Z,4.70
2022-10-25T02:03:16.589Z,5.60
2022-10-25T02:06:15.304Z,5.00
2022-10-25T02:09:11.724Z,6.20
2022-10-25T02:11:40.328Z,4.20
2022-10-25T02:14:20.157Z,5.90
2022-10-25T02:16:56.756Z,6.30
2022-10-25T02:19:33.652Z,4.60
2022-10-25T02:22:04.773Z,4.10
2022-10-25T02:24:33.968Z,4.40
2022-10-25T02:27:06.118Z,5.60
2022-10-25T02:29:35.743Z,5.00
2022-10-25T02:32:07.190Z,4.50
2022-10-25T02:34:35.996Z,4.90
2022-10-25T02:37:03.919Z,6.20
2022-10-25T02:39:32.957Z,4.90
2022-10-25T02:42:02.643Z,5.30
2022-10-25T02:44:30.827Z,5.30
2022-10-25T02:46:59.415Z,5.50
2022-10-25T02:49:27.482Z,4.90
2022-10-25T02:51:55.329Z,4.70
2022-10-25T02:54:23.628Z,4.90
2022-10-25T02:56:52.715Z,5.20
2022-10-25T02:59:21.477Z,4.80
2022-10-25T03:01:49.715Z,4.30
2022-10-25T03:04:17.520Z,4.60
2022-10-25T03:06:45.454Z,4.80
2022-10-25T03:09:13.268Z,4.70
2022-10-25T03:11:41.272Z,3.80
2022-10-25T03:14:09.437Z,5.00
2022-10-25T03:16:37.318Z,4.50
2022-10-25T03:19:05.595Z,5.10
2022-10-25T03:21:36.549Z,6.00
2022-10-25T03:24:07.966Z,4.50
2022-10-25T03:26:36.041Z,5.00
2022-10-25T03:29:04.109Z,4.70
2022-10-25T03:31:32.106Z,4.90
2022-10-25T03:33:59.947Z,4.70
2022-10-25T03:36:28.050Z,5.20
2022-10-25T03:38:55.996Z,4.90
2022-10-25T03:41:23.950Z,5.40
2022-10-25T03:43:51.791Z,4.50
2022-10-25T03:46:19.999Z,4.70
2022-10-25T03:48:47.856Z,4.10
2022-10-25T03:51:16.246Z,4.90
2022-10-25T03:53:44.217Z,5.20
2022-10-25T03:56:12.031Z,6.20
2022-10-25T03:58:40.153Z,5.10
2022-10-25T04:01:11.925Z,5.00
2022-10-25T04:03:40.392Z,4.80
2022-10-25T04:06:08.463Z,4.30
2022-10-25T04:08:38.560Z,5.30
2022-10-25T04:11:06.555Z,5.40
2022-10-25T04:13:34.378Z,4.80
2022-10-25T04:16:09.190Z,4.90
2022-10-25T04:21:05.979Z,5.50
2022-10-25T04:23:33.830Z,5.60
2022-10-25T04:26:02.151Z,5.00
2022-10-25T04:28:30.430Z,5.20
2022-10-25T04:30:58.538Z,5.00
2022-10-25T04:33:26.781Z,5.50
2022-10-25T04:35:57.045Z,5.30
2022-10-25T04:38:25.178Z,5.10
2022-10-25T04:40:58.616Z,4.80
2022-10-25T04:43:28.744Z,5.10
2022-10-25T04:46:01.569Z,5.10
2022-10-25T04:48:30.211Z,5.10
2022-10-25T04:51:01.412Z,6.20
2022-10-25T04:53:29.537Z,4.30
2022-10-25T04:56:04.950Z,4.10
2022-10-25T04:58:34.716Z,4.90
2022-10-25T05:01:16.154Z,4.10
2022-10-25T05:03:44.136Z,4.70
2022-10-25T05:06:20.106Z,4.90
2022-10-25T05:08:51.183Z,5.80
2022-10-25T05:11:23.872Z,4.90
2022-10-25T05:13:52.083Z,4.50
2022-10-25T05:16:24.338Z,4.80
2022-10-25T05:18:55.202Z,4.30
2022-10-25T05:21:30.397Z,4.70
2022-10-25T05:24:02.119Z,5.30
2022-10-25T05:26:32.370Z,5.30
2022-10-25T05:29:00.836Z,5.10
2022-10-25T05:31:31.504Z,4.50
2022-10-25T05:34:01.400Z,5.20
2022-10-25T05:36:29.785Z,4.70
2022-10-25T05:39:00.938Z,4.20
2022-10-25T05:41:32.032Z,5.30
2022-10-25T05:44:02.785Z,4.20
2022-10-25T05:46:31.660Z,4.60
2022-10-25T05:49:00.301Z,5.00
2022-10-25T05:51:36.696Z,4.30
2022-10-25T05:54:10.657Z,5.70
2022-10-25T05:56:40.402Z,6.50
2022-10-25T05:59:15.520Z,6.40
2022-10-25T06:01:46.934Z,9.00
2022-10-25T06:04:17.094Z,9.50
2022-10-25T06:06:47.724Z,12.80
2022-10-25T06:09:15.672Z,14.80
2022-10-25T06:11:44.368Z,13.20
2022-10-25T06:14:12.846Z,14.20
2022-10-25T06:16:41.014Z,18.00
2022-10-25T06:19:09.290Z,13.80
2022-10-25T06:21:37.684Z,12.40
2022-10-25T06:24:06.790Z,11.70
2022-10-25T06:26:36.077Z,10.40
2022-10-25T06:29:06.102Z,9.20
2022-10-25T06:31:34.444Z,10.60
2022-10-25T06:34:04.427Z,9.60
2022-10-25T06:36:32.968Z,11.20
2022-10-25T06:39:05.763Z,8.40
2022-10-25T06:41:37.315Z,9.80
2022-10-25T06:44:07.921Z,10.10
2022-10-25T06:47:11.761Z,8.40
2022-10-25T06:49:28.761Z,7.80
2022-10-25T06:51:56.958Z,7.90
2022-10-25T06:54:27.443Z,10.10
2022-10-25T06:56:55.843Z,9.00
2022-10-25T06:59:24.317Z,7.60
2022-10-25T07:01:53.133Z,7.90
2022-10-25T07:04:21.646Z,7.70
2022-10-25T07:06:52.793Z,7.50
2022-10-25T07:09:23.470Z,8.90
2022-10-25T07:11:51.843Z,7.00
2022-10-25T07:14:22.271Z,7.20
2022-10-25T07:16:50.657Z,8.30
2022-10-25T07:19:18.925Z,8.20
2022-10-25T07:21:47.715Z,6.90
2022-10-25T07:24:15.805Z,7.10
2022-10-25T07:26:44.360Z,6.80
2022-10-25T07:29:12.544Z,7.10
2022-10-25T07:31:46.288Z,7.60
2022-10-25T07:34:16.081Z,6.00
2022-10-25T07:36:44.747Z,6.70
2022-10-25T07:39:12.836Z,5.60
2022-10-25T07:41:41.580Z,7.00
2022-10-25T07:44:15.420Z,6.50
2022-10-25T07:46:45.335Z,6.80
2022-10-25T07:49:14.389Z,6.80
2022-10-25T07:51:42.501Z,6.80
2022-10-25T07:54:10.781Z,7.50
2022-10-25T07:56:38.749Z,6.90
2022-10-25T07:59:06.711Z,6.30
2022-10-25T08:01:34.615Z,6.40
2022-10-25T08:04:02.727Z,6.10
2022-10-25T08:06:30.728Z,5.90
2022-10-25T08:09:05.475Z,6.80
2022-10-25T08:11:43.569Z,6.80
2022-10-25T08:14:12.403Z,5.90
2022-10-25T08:16:40.725Z,6.00
2022-10-25T08:19:08.800Z,6.20
2022-10-25T08:21:36.874Z,6.20
2022-10-25T08:24:05.734Z,5.60
2022-10-25T08:26:36.795Z,6.50
2022-10-25T08:29:06.119Z,5.90
2022-10-25T08:31:34.762Z,5.30
2022-10-25T08:34:03.852Z,5.30
2022-10-25T08:36:32.382Z,4.90
2022-10-25T08:39:00.865Z,6.00
2022-10-25T08:41:45.570Z,5.40
2022-10-25T08:45:00.775Z,5.60
2022-10-25T08:47:41.976Z,4.80
2022-10-25T08:50:26.835Z,4.30
2022-10-25T08:53:04.624Z,5.80
2022-10-25T08:55:41.629Z,5.10
2022-10-25T08:58:38.254Z,4.60
2022-10-25T09:01:17.139Z,4.80
2022-10-25T09:03:45.885Z,5.40
2022-10-25T09:06:41.489Z,6.30
2022-10-25T09:09:42.206Z,5.00
2022-10-25T09:12:29.240Z,4.80
2022-10-25T09:15:26.705Z,4.50
2022-10-25T09:17:55.459Z,4.50
2022-10-25T09:20:52.402Z,5.40
2022-10-25T09:23:32.676Z,5.20
2022-10-25T09:26:40.123Z,5.20
2022-10-25T09:29:17.381Z,4.80
2022-10-25T09:31:53.651Z,4.50
2022-10-25T09:34:24.023Z,4.10
2022-10-25T09:37:03.509Z,4.70
2022-10-25T09:39:53.547Z,3.90
2022-10-25T09:42:42.956Z,4.90
2022-10-25T09:45:32.079Z,5.50
2022-10-25T09:48:31.233Z,4.70
2022-10-25T09:51:38.218Z,3.80
2022-10-25T09:54:28.367Z,5.00
2022-10-25T09:56:56.683Z,3.60
2022-10-25T09:59:24.653Z,4.00
2022-10-25T10:01:52.649Z,4.20
2022-10-25T10:04:38.202Z,3.30
2022-10-25T10:07:17.950Z,4.00
2022-10-25T10:09:48.788Z,4.50
2022-10-25T10:12:27.358Z,3.80
2022-10-25T10:15:06.709Z,3.80
2022-10-25T10:17:34.918Z,3.80
2022-10-25T10:20:16.711Z,4.50
2022-10-25T10:22:53.727Z,4.50
2022-10-25T10:25:27.298Z,3.90
2022-10-25T10:27:59.196Z,4.40
2022-10-25T10:30:31.019Z,3.10
2022-10-25T10:33:02.877Z,3.80
2022-10-25T10:35:37.143Z,3.50
2022-10-25T10:38:28.886Z,3.80
2022-10-25T10:41:24.434Z,3.50
2022-10-25T10:44:14.016Z,3.50
2022-10-25T10:46:46.900Z,6.30
2022-10-25T10:49:17.326Z,7.60
2022-10-25T10:51:46.429Z,10.90
2022-10-25T10:54:26.886Z,10.00
2022-10-25T10:57:00.794Z,9.50
2022-10-25T10:59:39.840Z,9.90
2022-10-25T11:02:29.572Z,9.10
2022-10-25T11:04:58.300Z,7.40
2022-10-25T11:07:32.358Z,7.70
2022-10-25T11:10:15.482Z,8.30
2022-10-25T11:12:44.668Z,8.80
2022-10-25T11:15:14.949Z,8.00
2022-10-25T11:18:01.139Z,7.60
2022-10-25T11:20:47.441Z,7.60
2022-10-25T11:24:03.419Z,7.10
2022-10-25T11:27:07.041Z,7.30
2022-10-25T11:30:09.800Z,7.20
2022-10-25T11:32:56.896Z,7.80
2022-10-25T11:35:59.529Z,6.40
2022-10-25T11:38:45.935Z,5.70
2022-10-25T11:41:34.590Z,5.70
2022-10-25T11:44:37.598Z,7.10
2022-10-25T11:47:12.402Z,5.70
2022-10-25T11:50:21.643Z,6.60
2022-10-25T11:53:17.261Z,7.20
2022-10-25T11:56:23.038Z,6.10
2022-10-25T12:01:48.906Z,5.40
2022-10-25T12:05:00.757Z,5.90
2022-10-25T12:07:50.840Z,5.20
2022-10-25T12:10:34.828Z,5.40
2022-10-25T12:13:11.500Z,5.90
2022-10-25T12:15:54.536Z,5.50
2022-10-25T12:18:32.487Z,6.50
2022-10-25T12:21:01.944Z,4.80
2022-10-25T12:23:46.630Z,6.70
2022-10-25T12:26:33.366Z,6.90
2022-10-25T12:29:14.491Z,5.60
2022-10-25T12:31:56.965Z,5.80
2022-10-25T12:34:38.129Z,6.80
2022-10-25T12:37:42.495Z,7.30
2022-10-25T12:40:21.977Z,6.70
2022-10-25T12:43:05.894Z,7.50
2022-10-25T12:46:18.694Z,6.90
2022-10-25T12:49:16.733Z,6.10
2022-10-25T12:52:00.880Z,5.80
2022-10-25T12:55:04.573Z,6.40
2022-10-25T12:58:17.202Z,6.20
2022-10-25T13:01:13.221Z,5.80
2022-10-25T13:03:58.097Z,5.80
2022-10-25T13:06:44.792Z,6.90
2022-10-25T13:09:23.425Z,5.20
2022-10-25T13:12:30.686Z,5.60
2022-10-25T13:15:01.388Z,4.50
2022-10-25T13:17:41.490Z,5.40
2022-10-25T13:22:52.394Z,4.90
2022-10-25T13:25:33.121Z,5.20
2022-10-25T13:28:16.196Z,5.60
2022-10-25T13:30:44.912Z,4.90
2022-10-25T13:33:19.429Z,4.50
2022-10-25T13:35:50.739Z,5.00
2022-10-25T13:38:38.077Z,5.50
2022-10-25T13:41:19.658Z,5.20
2022-10-25T13:44:05.747Z,4.10
2022-10-25T13:46:39.792Z,3.60
2022-10-25T13:49:52.733Z,4.20
2022-10-25T13:52:34.581Z,4.30
2022-10-25T13:55:10.319Z,5.40
2022-10-25T13:57:56.221Z,4.50
2022-10-25T14:00:23.964Z,5.80
2022-10-25T14:03:10.696Z,4.10
2022-10-25T14:05:55.810Z,4.50
2022-10-25T14:08:48.617Z,3.90
2022-10-25T14:11:24.190Z,4.10
2022-10-25T14:14:28.282Z,4.50
2022-10-25T14:17:21.039Z,3.40
2022-10-25T14:19:55.657Z,3.30
2022-10-25T14:25:32.146Z,4.10
2022-10-25T14:28:33.081Z,3.60
2022-10-25T14:31:05.344Z,3.40
2022-10-25T14:33:46.129Z,3.70
2022-10-25T14:36:29.456Z,3.80
2022-10-25T14:39:01.733Z,3.70
2022-10-25T14:41:34.048Z,2.90
2022-10-25T14:44:03.621Z,4.10
2022-10-25T14:46:31.991Z,4.00
2022-10-25T14:49:02.621Z,3.40
2022-10-25T14:51:42.574Z,4.30
2022-10-25T14:54:10.846Z,4.20
2022-10-25T14:56:46.602Z,3.80
2022-10-25T14:59:46.467Z,3.50
2022-10-25T15:02:40.089Z,4.70
2022-10-25T15:05:20.120Z,4.20
2022-10-25T15:07:54.105Z,3.80
2022-10-25T15:10:45.264Z,2.70
2022-10-25T15:13:20.914Z,3.20
2022-10-25T15:15:52.098Z,3.60
2022-10-25T15:18:29.197Z,4.50
2022-10-25T15:21:03.436Z,3.90
2022-10-25T15:23:32.247Z,3.30
2022-10-25T15:26:31.492Z,3.40
2022-10-25T15:29:02.510Z,3.30
2022-10-25T15:31:32.957Z,4.00
2022-10-25T15:34:06.274Z,4.80
2022-10-25T15:36:35.002Z,3.40
2022-10-25T15:39:23.093Z,3.50
2022-10-25T15:41:51.141Z,4.50
2022-10-25T15:44:19.083Z,3.30
2022-10-25T15:46:49.064Z,3.70
2022-10-25T15:49:18.846Z,3.40
2022-10-25T15:51:47.085Z,3.20
2022-10-25T15:54:23.999Z,3.80
2022-10-25T15:56:52.226Z,3.40
2022-10-25T15:59:20.714Z,3.40
2022-10-25T16:01:53.660Z,4.80
2022-10-25T16:04:21.578Z,4.50
2022-10-25T16:06:49.443Z,3.50
2022-10-25T16:09:17.380Z,3.80
2022-10-25T16:11:59.230Z,3.20
2022-10-25T16:14:29.531Z,4.20
2022-10-25T16:16:59.139Z,3.40
2022-10-25T16:19:31.623Z,2.70
2022-10-25T16:22:00.055Z,7.00
2022-10-25T16:24:27.964Z,16.50
2022-10-25T16:26:56.102Z,24.20
2022-10-25T16:29:25.493Z,28.80
2022-10-25T16:31:55.662Z,28.00
2022-10-25T16:34:24.141Z,32.80
2022-10-25T16:36:52.837Z,33.50
2022-10-25T16:39:21.159Z,33.30
2022-10-25T16:41:49.996Z,35.50
2022-10-25T16:44:19.816Z,31.30
2022-10-25T16:46:48.149Z,30.90
2022-10-25T16:49:16.155Z,32.80
2022-10-25T16:51:45.248Z,30.70
2022-10-25T16:54:15.586Z,35.00
2022-10-25T16:56:44.999Z,34.70
2022-10-25T16:59:13.873Z,36.00
2022-10-25T17:01:44.802Z,35.80
2022-10-25T17:04:15.078Z,38.50
2022-10-25T17:06:43.330Z,34.70
2022-10-25T17:09:11.805Z,39.10
2022-10-25T17:11:40.581Z,40.30
2022-10-25T17:14:10.398Z,38.70
2022-10-25T17:16:44.732Z,43.80
2022-10-25T17:19:13.380Z,38.60
2022-10-25T17:21:41.287Z,42.90
2022-10-25T17:24:10.013Z,37.50
2022-10-25T17:26:39.351Z,38.10
2022-10-25T17:29:08.270Z,43.00
2022-10-25T17:31:37.991Z,41.30
2022-10-25T17:34:06.030Z,45.10
2022-10-25T17:36:34.482Z,38.20
2022-10-25T17:39:06.552Z,38.70
2022-10-25T17:41:36.037Z,35.50
2022-10-25T17:46:41.077Z,36.60
2022-10-25T17:49:11.941Z,37.30
2022-10-25T17:51:41.987Z,36.50
2022-10-25T17:54:10.849Z,35.40
2022-10-25T17:56:43.662Z,33.10
2022-10-25T17:59:11.440Z,36.70
2022-10-25T18:01:40.705Z,37.50
2022-10-25T18:04:08.826Z,36.30
2022-10-25T18:06:36.696Z,32.40
2022-10-25T18:09:04.935Z,36.80
2022-10-25T18:11:32.755Z,34.30
2022-10-25T18:14:02.234Z,30.20
2022-10-25T18:16:31.134Z,34.30
2022-10-25T18:19:03.447Z,33.40
2022-10-25T18:21:33.207Z,31.40
2022-10-25T18:24:05.167Z,35.90
2022-10-25T18:26:35.269Z,32.60
2022-10-25T18:29:03.843Z,34.90
2022-10-25T18:31:32.130Z,33.30
2022-10-25T18:34:04.742Z,33.30
2022-10-25T18:36:33.189Z,32.50
2022-10-25T18:39:01.086Z,28.70
2022-10-25T18:41:33.778Z,31.40
2022-10-25T18:44:03.356Z,28.60
2022-10-25T18:46:32.793Z,28.60
2022-10-25T18:49:01.059Z,29.10
2022-10-25T18:51:30.671Z,32.40
2022-10-25T18:54:03.001Z,27.80
2022-10-25T18:56:31.486Z,33.80
2022-10-25T18:58:59.986Z,28.40
2022-10-25T19:01:32.790Z,29.10
2022-10-25T19:04:03.979Z,30.20
2022-10-25T19:06:33.807Z,28.80
2022-10-25T19:09:03.208Z,24.20
2022-10-25T19:11:33.453Z,28.40
2022-10-25T19:14:03.152Z,30.10
2022-10-25T19:16:31.110Z,22.40
2022-10-25T19:19:07.331Z,27.40
2022-10-25T19:21:36.064Z,26.80
2022-10-25T19:24:05.261Z,26.20
2022-10-25T19:26:33.402Z,26.50
2022-10-25T19:29:01.691Z,28.20
2022-10-25T19:31:29.882Z,26.00
2022-10-25T19:34:03.114Z,23.20
2022-10-25T19:36:32.279Z,25.50
2022-10-25T19:39:01.557Z,28.70
2022-10-25T19:41:30.164Z,29.20
2022-10-25T19:43:58.956Z,26.70
2022-10-25T19:46:27.022Z,28.00
2022-10-25T19:48:56.534Z,26.00
2022-10-25T19:51:24.536Z,25.60
2022-10-25T19:53:52.432Z,25.70
2022-10-25T19:56:23.266Z,25.70
2022-10-25T19:58:51.681Z,22.70
2022-10-25T20:01:27.442Z,24.70
2022-10-25T20:03:57.863Z,20.80
2022-10-25T20:06:31.737Z,21.00
2022-10-25T20:09:01.883Z,22.60
2022-10-25T20:11:31.707Z,27.00
2022-10-25T20:14:02.710Z,22.00
2022-10-25T20:16:31.641Z,22.20
2022-10-25T20:19:01.573Z,19.90
2022-10-25T20:21:34.753Z,22.50
2022-10-25T20:24:07.675Z,19.30
2022-10-25T20:26:39.676Z,20.90
2022-10-25T20:29:20.173Z,19.80
2022-10-25T20:31:52.042Z,20.80
2022-10-25T20:34:20.910Z,17.60
2022-10-25T20:36:49.376Z,18.70
2022-10-25T20:39:18.116Z,15.70
2022-10-25T20:41:46.280Z,20.00
2022-10-25T20:44:14.957Z,15.80
2022-10-25T20:46:43.474Z,17.70
2022-10-25T20:49:11.597Z,16.30
2022-10-25T20:51:39.978Z,16.00
2022-10-25T20:54:09.819Z,15.30
2022-10-25T20:56:39.667Z,16.00
2022-10-25T20:59:08.735Z,17.40
2022-10-25T21:01:37.219Z,15.40
2022-10-25T21:04:05.959Z,16.20
2022-10-25T21:06:33.931Z,18.90
2022-10-25T21:09:02.111Z,17.60
2022-10-25T21:11:30.684Z,18.90
2022-10-25T21:13:58.657Z,17.70
2022-10-25T21:16:26.727Z,20.50
2022-10-25T21:18:54.697Z,17.60
2022-10-25T21:21:22.463Z,18.30
2022-10-25T21:23:56.319Z,19.20
2022-10-25T21:26:24.676Z,17.00
2022-10-25T21:28:52.746Z,17.50
2022-10-25T21:31:20.783Z,16.40
2022-10-25T21:33:50.279Z,15.30
2022-10-25T21:36:21.143Z,17.20
2022-10-25T21:38:49.616Z,15.20
2022-10-25T21:41:26.967Z,14.80
2022-10-25T21:43:57.490Z,16.50
2022-10-25T21:46:28.096Z,13.90
2022-10-25T21:48:56.038Z,15.70
2022-10-25T21:51:25.026Z,17.10
2022-10-25T21:53:55.175Z,13.80
2022-10-25T21:56:31.241Z,14.40
2022-10-25T21:59:01.006Z,13.70
2022-10-25T22:01:30.986Z,11.40
2022-10-25T22:04:00.170Z,12.60
2022-10-25T22:06:28.206Z,13.90
2022-10-25T22:08:57.368Z,13.30
2022-10-25T22:11:35.894Z,11.40
2022-10-25T22:14:09.057Z,12.70
2022-10-25T22:16:36.995Z,12.60
2022-10-25T22:19:20.963Z,13.00
2022-10-25T22:21:51.024Z,13.20
2022-10-25T22:24:19.113Z,12.00
2022-10-25T22:26:50.574Z,11.90
2022-10-25T22:29:18.532Z,14.10
2022-10-25T22:31:46.399Z,10.60
2022-10-25T22:34:14.363Z,11.80
2022-10-25T22:36:42.751Z,14.20
2022-10-25T22:39:10.868Z,12.00
2022-10-25T22:41:38.907Z,10.60
2022-10-25T22:44:07.069Z,12.00
2022-10-25T22:46:36.782Z,11.80
2022-10-25T22:49:08.627Z,10.20
2022-10-25T22:51:38.067Z,11.10
2022-10-25T22:54:06.514Z,10.00
2022-10-25T22:56:34.900Z,9.40
2022-10-25T22:59:05.550Z,11.50
2022-10-25T23:01:36.698Z,10.40
2022-10-25T23:04:08.758Z,10.10
2022-10-25T23:06:40.538Z,9.80
2022-10-25T23:09:10.916Z,10.90
2022-10-25T23:11:41.241Z,10.40
2022-10-25T23:14:14.664Z,9.80
2022-10-25T23:16:46.878Z,9.60
2022-10-25T23:19:15.197Z,10.60
2022-10-25T23:21:43.002Z,9.60
2022-10-25T23:24:11.041Z,10.30
2022-10-25T23:26:39.807Z,10.70
2022-10-25T23:29:13.865Z,8.90
2022-10-25T23:31:42.030Z,9.90
2022-10-25T23:34:10.733Z,8.30
2022-10-25T23:36:39.368Z,9.60
2022-10-25T23:39:08.234Z,8.50
2022-10-25T23:41:36.869Z,9.90
2022-10-25T23:44:05.191Z,9.00
2022-10-25T23:46:33.388Z,9.00
2022-10-25T23:49:01.401Z,8.70
2022-10-25T23:51:29.346Z,8.20
2022-10-25T23:53:57.102Z,8.60
2022-10-25T23:56:25.095Z,7.90
2022-10-25T23:58:53.890Z,8.60
